Time;durP1;ratioP1;P1;durP2;ratioP2;P2;SDS_P1;SDS_P2;PMS_P1;PMS_P2;Temp;Humidity;BMP_temperature;BMP_pressure;BME280_temperature;BME280_humidity;BME280_pressure;Samples;Min_cycle;Max_cycle;Signal;HPM_P1;HPM_P2
2023/03/22 00:00:45;;;;;;;10.88;1.35;;;10.20;99.90;;;;;;5101008;28;20476;-35
2023/03/22 00:03:11;;;;;;;3.53;1.13;;;10.30;99.90;;;;;;5094346;28;22009;-37
2023/03/22 00:05:36;;;;;;;8.73;1.27;;;10.30;99.90;;;;;;5103855;28;20043;-36
2023/03/22 07:33:04;;;;;;;3.35;1.25;;;11.40;99.90;;;;;;5085742;28;20127;-37
2023/03/22 07:35:30;;;;;;;7.65;1.75;;;11.50;99.90;;;;;;5098608;28;20026;-36
2023/03/22 07:37:56;;;;;;;6.43;1.58;;;11.60;99.90;;;;;;5095927;28;20102;-48
2023/03/22 07:40:22;;;;;;;5.68;1.52;;;11.80;99.90;;;;;;5112291;28;20019;-45
2023/03/22 07:42:49;;;;;;;4.78;1.35;;;11.90;99.90;;;;;;5108732;28;20032;-42
2023/03/22 07:45:19;;;;;;;8.77;1.53;;;12.00;99.90;;;;;;5099285;28;20015;-45
2023/03/22 07:47:45;;;;;;;4.60;1.38;;;12.10;99.90;;;;;;5098933;28;20274;-42
2023/03/22 07:50:12;;;;;;;4.65;1.80;;;12.10;99.90;;;;;;5093881;28;20073;-44
2023/03/22 07:52:39;;;;;;;10.35;2.10;;;12.10;99.90;;;;;;5093979;28;20344;-46
2023/03/22 07:55:05;;;;;;;8.85;1.63;;;12.20;99.90;;;;;;5093187;28;20107;-43
2023/03/22 07:57:30;;;;;;;7.53;1.38;;;12.30;99.90;;;;;;5093748;28;20020;-46
2023/03/22 07:59:56;;;;;;;8.75;1.30;;;12.30;99.90;;;;;;5093491;28;20028;-45
2023/03/22 08:02:22;;;;;;;6.05;1.65;;;12.30;99.90;;;;;;5107681;28;20055;-45
2023/03/22 08:04:49;;;;;;;8.50;1.48;;;12.30;99.90;;;;;;5105541;28;20020;-42
2023/03/22 08:07:17;;;;;;;7.63;1.75;;;12.40;99.90;;;;;;5107066;28;20051;-47
2023/03/22 08:09:43;;;;;;;;;;;12.40;99.90;;;;;;5106822;28;20020;-47
2023/03/22 08:12:09;;;;;;;11.00;2.00;;;12.40;99.90;;;;;;5113000;27;19904;-40
2023/03/22 08:14:35;;;;;;;11.65;1.75;;;12.40;99.90;;;;;;5102205;28;20063;-43
2023/03/22 08:17:01;;;;;;;5.95;1.05;;;12.40;99.90;;;;;;5109746;28;20023;-44
2023/03/22 08:19:27;;;;;;;17.38;1.80;;;12.40;99.90;;;;;;5114140;28;20483;-43
2023/03/22 08:21:52;;;;;;;6.13;1.75;;;12.40;99.90;;;;;;5113889;28;20031;-46
2023/03/22 08:24:18;;;;;;;7.10;2.20;;;12.40;99.90;;;;;;5110559;28;20024;-43
2023/03/22 08:26:44;;;;;;;3.00;1.52;;;12.30;99.90;;;;;;5107251;28;20020;-44
2023/03/22 08:29:10;;;;;;;7.03;1.77;;;12.10;99.90;;;;;;5099136;28;20023;-43
2023/03/22 08:31:36;;;;;;;10.95;2.05;;;12.10;99.90;;;;;;5098517;28;20024;-46
2023/03/22 08:34:02;;;;;;;9.73;2.22;;;12.20;99.90;;;;;;5111799;28;20507;-44
2023/03/22 08:36:27;;;;;;;7.50;1.98;;;12.40;99.90;;;;;;5113783;28;20037;-43
2023/03/22 08:38:53;;;;;;;11.13;1.90;;;12.50;99.90;;;;;;5113925;28;20027;-44
2023/03/22 08:41:19;;;;;;;5.35;1.30;;;12.50;99.90;;;;;;5113456;28;20034;-47
2023/03/22 08:43:45;;;;;;;5.85;1.73;;;12.60;99.90;;;;;;5113594;28;20024;-48
2023/03/22 08:46:10;;;;;;;9.75;2.00;;;12.50;99.90;;;;;;5113364;28;20051;-48
2023/03/22 08:48:37;;;;;;;3.97;1.60;;;12.40;99.90;;;;;;5113360;28;20030;-45
2023/03/22 08:51:05;;;;;;;6.85;2.25;;;12.30;99.90;;;;;;5113770;28;20016;-49
2023/03/22 08:53:30;;;;;;;13.18;1.88;;;12.20;99.90;;;;;;5113526;28;20098;-42
2023/03/22 08:56:00;;;;;;;9.38;2.25;;;12.20;99.90;;;;;;5113715;28;20171;-44
2023/03/22 08:58:26;;;;;;;4.55;1.95;;;12.10;99.90;;;;;;5112133;28;20024;-47
2023/03/22 09:00:51;;;;;;;5.45;1.65;;;12.10;99.90;;;;;;5113421;28;20361;-45
2023/03/22 09:03:17;;;;;;;2.88;1.40;;;12.00;99.90;;;;;;5113293;28;20106;-50
2023/03/22 09:05:43;;;;;;;11.52;2.08;;;12.00;99.90;;;;;;5113319;28;20023;-46
2023/03/22 09:08:09;;;;;;;5.18;1.77;;;11.90;99.90;;;;;;5111315;28;20090;-49
2023/03/22 09:10:38;;;;;;;4.00;1.30;;;11.80;99.90;;;;;;5113265;28;20510;-47
2023/03/22 09:13:03;;;;;;;11.93;2.70;;;11.70;99.90;;;;;;5113211;28;20067;-39
2023/03/22 09:15:29;;;;;;;8.30;1.65;;;11.70;99.90;;;;;;5113199;28;20047;-37
2023/03/22 09:17:55;;;;;;;7.13;2.22;;;11.80;99.90;;;;;;5113174;28;20085;-34
2023/03/22 09:20:24;;;;;;;9.35;1.52;;;11.70;99.90;;;;;;5113157;28;20028;-38
2023/03/22 09:22:50;;;;;;;11.60;1.90;;;11.70;99.90;;;;;;5111745;28;20059;-34
2023/03/22 09:25:16;;;;;;;10.55;2.10;;;11.60;99.90;;;;;;5113136;28;20484;-35
2023/03/22 09:27:41;;;;;;;16.33;2.17;;;11.60;99.90;;;;;;5113257;28;20091;-38
2023/03/22 09:30:08;;;;;;;4.65;1.80;;;11.50;99.90;;;;;;5113024;28;20023;-34
2023/03/22 09:32:33;;;;;;;10.82;1.65;;;11.40;99.90;;;;;;5112961;28;20079;-40
2023/03/22 09:34:59;;;;;;;7.70;1.98;;;11.40;99.90;;;;;;5112944;28;20527;-38
2023/03/22 09:37:29;;;;;;;12.02;1.60;;;11.40;99.90;;;;;;5112959;28;20028;-38
2023/03/22 09:39:56;;;;;;;4.70;1.88;;;11.30;99.90;;;;;;5113238;28;20023;-38
2023/03/22 09:42:37;;;;;;;12.45;2.33;;;11.20;99.90;;;;;;5113144;28;20039;-37
2023/03/22 09:45:05;;;;;;;4.10;1.42;;;11.20;99.90;;;;;;5112976;28;20016;-34
2023/03/22 09:47:35;;;;;;;;;;;11.10;99.90;;;;;;5113268;28;20119;-34
2023/03/22 09:50:23;;;;;;;10.90;1.92;;;11.20;99.90;;;;;;5113145;28;19904;-36
2023/03/22 09:52:49;;;;;;;;;;;11.20;99.90;;;;;;5113621;28;20036;-38
2023/03/22 09:55:24;;;;;;;8.27;2.80;;;11.20;99.90;;;;;;5113162;28;19903;-37
2023/03/22 09:58:20;;;;;;;3.72;1.73;;;11.30;99.90;;;;;;5112867;28;20084;-38
2023/03/22 10:01:25;;;;;;;7.40;1.83;;;11.30;99.90;;;;;;5111900;28;20047;-36
2023/03/22 10:04:28;;;;;;;7.93;1.88;;;11.30;99.90;;;;;;5112697;28;20484;-37
2023/03/22 10:07:16;;;;;;;7.82;1.75;;;11.30;99.90;;;;;;5112624;28;20391;-39
2023/03/22 10:09:54;;;;;;;2.15;1.50;;;11.20;99.90;;;;;;5112594;28;20028;-36
2023/03/22 10:12:31;;;;;;;5.60;2.17;;;11.20;99.90;;;;;;5112737;28;20076;-40
2023/03/22 10:15:10;;;;;;;7.97;1.73;;;11.20;99.90;;;;;;5112661;28;20035;-33
2023/03/22 10:17:40;;;;;;;9.00;1.98;;;11.20;99.90;;;;;;5112918;28;20034;-40
2023/03/22 10:20:29;;;;;;;13.25;2.05;;;11.20;99.90;;;;;;5116248;27;20020;-39
2023/03/22 10:22:56;;;;;;;13.20;2.13;;;11.10;99.90;;;;;;5110477;28;20520;-36
2023/03/22 10:25:31;;;;;;;8.60;1.95;;;11.10;99.90;;;;;;5098108;28;20024;-40
2023/03/22 10:27:57;;;;;;;11.25;2.65;;;11.00;99.90;;;;;;5116048;28;20024;-38
2023/03/22 10:30:26;;;;;;;10.35;2.25;;;11.00;99.90;;;;;;5116086;28;20524;-33
2023/03/22 10:33:13;;;;;;;8.32;1.88;;;11.00;99.90;;;;;;5108392;28;20047;-38
2023/03/22 10:35:42;;;;;;;9.27;2.35;;;11.00;99.90;;;;;;5099739;28;20077;-38
2023/03/22 10:38:18;;;;;;;3.22;1.60;;;11.00;99.90;;;;;;5104754;28;20042;-36
2023/03/22 10:40:45;;;;;;;8.73;1.55;;;11.00;99.90;;;;;;5102513;28;20099;-37
2023/03/22 10:43:22;;;;;;;8.82;2.15;;;11.00;99.90;;;;;;5111894;28;20575;-37
2023/03/22 10:45:49;;;;;;;5.30;1.70;;;11.10;99.90;;;;;;5115760;28;20024;-33
2023/03/22 10:48:31;;;;;;;8.73;2.03;;;11.00;99.90;;;;;;5115720;28;20015;-38
2023/03/22 10:50:58;;;;;;;8.70;1.80;;;11.10;99.90;;;;;;5115980;28;20422;-37
2023/03/22 10:53:36;;;;;;;9.70;1.80;;;11.10;99.90;;;;;;5115878;28;20019;-36
2023/03/22 10:56:02;;;;;;;;;;;11.20;99.90;;;;;;5115966;28;20027;-35
2023/03/22 10:58:32;;;;;;;4.13;1.60;;;11.30;99.90;;;;;;5115808;27;19937;-38
2023/03/22 11:01:23;;;;;;;4.75;1.60;;;11.40;99.90;;;;;;5115502;28;20390;-34
2023/03/22 11:03:51;;;;;;;3.17;1.92;;;11.40;99.90;;;;;;5115094;28;20078;-36
2023/03/22 11:06:25;;;;;;;7.00;1.98;;;11.50;99.90;;;;;;5115395;28;20023;-37
2023/03/22 11:08:58;;;;;;;5.50;2.05;;;11.50;99.90;;;;;;5115328;28;20019;-36
2023/03/22 11:11:25;;;;;;;5.53;1.60;;;11.50;99.90;;;;;;5115663;28;20483;-35
2023/03/22 11:14:13;;;;;;;10.82;1.80;;;11.50;99.90;;;;;;5115248;27;20042;-38
2023/03/22 11:16:50;;;;;;;3.38;1.83;;;11.60;99.90;;;;;;5115559;28;20475;-36
2023/03/22 11:19:32;;;;;;;10.85;2.05;;;11.60;99.90;;;;;;5115207;28;20046;-38
2023/03/22 11:21:59;;;;;;;5.20;1.25;;;11.60;99.90;;;;;;5115092;28;20035;-35
2023/03/22 11:24:31;;;;;;;8.57;1.65;;;11.60;99.90;;;;;;5115378;28;20031;-36
2023/03/22 11:27:18;;;;;;;5.68;1.73;;;11.60;99.90;;;;;;5106883;28;20485;-37
2023/03/22 11:29:47;;;;;;;6.40;1.57;;;11.70;99.90;;;;;;5093939;28;20411;-33
2023/03/22 11:32:34;;;;;;;6.80;1.73;;;11.70;99.90;;;;;;5094223;28;20297;-40
2023/03/22 11:35:22;;;;;;;10.85;1.50;;;11.70;99.90;;;;;;5093266;28;20470;-38
2023/03/22 11:37:49;;;;;;;6.40;2.10;;;11.80;99.90;;;;;;5094352;28;20036;-38
2023/03/22 11:40:17;;;;;;;;;;;11.80;99.90;;;;;;5094801;28;20028;-38
2023/03/22 11:42:44;;;;;;;6.22;1.48;;;11.70;99.90;;;;;;5094288;28;20266;-37
2023/03/22 11:45:25;;;;;;;6.75;2.47;;;11.70;99.90;;;;;;5094467;28;20499;-38
2023/03/22 11:47:52;;;;;;;7.15;2.45;;;11.70;99.90;;;;;;5094214;28;20052;-37
2023/03/22 11:50:34;;;;;;;4.35;1.52;;;11.70;99.90;;;;;;5094137;28;20435;-39
2023/03/22 11:53:03;;;;;;;4.95;1.63;;;11.80;99.90;;;;;;5094420;28;20032;-38
2023/03/22 11:55:32;;;;;;;10.70;1.67;;;11.80;99.90;;;;;;5094307;28;20027;-40
2023/03/22 11:57:58;;;;;;;10.60;1.92;;;11.70;99.90;;;;;;5094294;28;20028;-40
2023/03/22 12:00:28;;;;;;;2.75;1.48;;;11.70;99.90;;;;;;5093072;28;20085;-36
2023/03/22 12:03:02;;;;;;;7.07;1.73;;;11.70;99.90;;;;;;5094136;28;20461;-39
2023/03/22 12:05:30;;;;;;;7.68;1.92;;;11.70;99.90;;;;;;5093957;28;20028;-36
2023/03/22 12:08:23;;;;;;;8.13;1.65;;;11.80;99.90;;;;;;5093816;28;20524;-35
2023/03/22 12:10:56;;;;;;;6.20;1.95;;;11.80;99.90;;;;;;5093706;28;20032;-38
2023/03/22 12:13:37;;;;;;;4.45;1.83;;;11.70;99.90;;;;;;5093834;28;20055;-38
2023/03/22 12:16:06;;;;;;;10.55;2.00;;;11.80;99.90;;;;;;5093735;28;20032;-39
2023/03/22 12:18:43;;;;;;;8.77;2.22;;;11.80;99.90;;;;;;5093535;28;20039;-41
2023/03/22 12:21:10;;;;;;;8.82;1.88;;;11.80;99.90;;;;;;5093623;28;20032;-37
2023/03/22 12:23:37;;;;;;;5.00;1.63;;;11.80;99.90;;;;;;5093857;28;20069;-36
2023/03/22 12:26:10;;;;;;;6.07;2.15;;;11.90;99.90;;;;;;5093448;28;20024;-36
2023/03/22 12:28:52;;;;;;;8.48;2.38;;;11.90;99.90;;;;;;5093495;28;20433;-40
2023/03/22 12:31:26;;;;;;;4.47;1.88;;;11.90;99.90;;;;;;5093536;28;20435;-41
2023/03/22 12:33:58;;;;;;;4.57;1.88;;;11.90;99.90;;;;;;5091758;28;20042;-37
2023/03/22 12:36:40;;;;;;;4.03;1.77;;;11.90;99.90;;;;;;5093381;28;20081;-37
2023/03/22 12:39:07;;;;;;;7.30;1.60;;;11.90;99.90;;;;;;5091966;28;20031;-35
2023/03/22 12:41:46;;;;;;;3.83;1.83;;;11.90;99.90;;;;;;5092577;28;20031;-37
2023/03/22 12:44:17;;;;;;;2.97;1.58;;;11.90;99.90;;;;;;5093599;28;20028;-40
2023/03/22 12:46:52;;;;;;;4.65;1.88;;;11.90;99.90;;;;;;5093450;28;20487;-37
2023/03/22 12:49:40;;;;;;;9.52;2.30;;;11.90;99.90;;;;;;5093424;28;20073;-39
2023/03/22 12:52:19;;;;;;;5.97;2.15;;;11.90;99.90;;;;;;5093002;28;20036;-33
2023/03/22 12:54:47;;;;;;;7.57;2.10;;;12.00;99.90;;;;;;5093415;28;20557;-37
2023/03/22 12:57:15;;;;;;;10.75;2.00;;;12.00;99.90;;;;;;5093087;28;20480;-39
2023/03/22 12:59:44;;;;;;;4.80;1.80;;;12.00;99.90;;;;;;5093291;28;20032;-35
2023/03/22 13:02:24;;;;;;;10.00;1.83;;;12.00;99.90;;;;;;5092850;28;20286;-38
2023/03/22 13:04:53;;;;;;;3.65;1.48;;;12.00;99.90;;;;;;5093318;28;20024;-34
2023/03/22 13:07:34;;;;;;;11.10;2.63;;;12.00;99.90;;;;;;5093008;28;20039;-38
2023/03/22 13:10:21;;;;;;;3.92;2.05;;;12.00;99.90;;;;;;5093249;28;20024;-39
2023/03/22 13:13:22;;;;;;;3.78;2.10;;;12.00;99.90;;;;;;5092852;28;20043;-35
2023/03/22 13:16:12;;;;;;;7.63;2.00;;;12.00;99.90;;;;;;5093182;28;20067;-40
2023/03/22 13:18:41;;;;;;;2.17;1.85;;;12.00;99.90;;;;;;5092878;28;20036;-38
2023/03/22 13:21:16;;;;;;;4.65;1.92;;;12.10;99.90;;;;;;5093063;28;20082;-37
2023/03/22 13:23:51;;;;;;;6.68;1.80;;;12.10;99.90;;;;;;5092847;28;20032;-38
2023/03/22 13:26:18;;;;;;;4.05;1.92;;;12.10;99.90;;;;;;5092707;28;20560;-35
2023/03/22 13:28:58;;;;;;;5.15;1.38;;;12.20;99.90;;;;;;5092673;28;20089;-36
2023/03/22 13:31:50;;;;;;;5.03;1.80;;;12.20;99.90;;;;;;5092737;28;20032;-38
2023/03/22 13:34:29;;;;;;;3.88;1.33;;;12.30;99.90;;;;;;5091681;28;20040;-39
2023/03/22 13:36:56;;;;;;;6.20;1.80;;;12.30;99.90;;;;;;5092913;28;20029;-39
2023/03/22 13:39:24;;;;;;;3.92;1.73;;;12.40;99.90;;;;;;5092584;28;20035;-39
2023/03/22 13:42:04;;;;;;;6.68;2.03;;;12.40;99.90;;;;;;5092836;28;20032;-41
2023/03/22 13:44:37;;;;;;;6.68;1.55;;;12.40;99.90;;;;;;5092623;28;20388;-39
2023/03/22 13:47:07;;;;;;;3.28;1.85;;;12.50;99.90;;;;;;5092575;28;20020;-35
2023/03/22 13:49:47;;;;;;;7.88;1.75;;;12.50;99.90;;;;;;5092446;28;20032;-35
2023/03/22 13:52:26;;;;;;;8.77;1.83;;;12.60;99.90;;;;;;5092561;28;20028;-35
2023/03/22 13:54:54;;;;;;;5.72;1.90;;;12.60;99.90;;;;;;5096657;28;20107;-41
2023/03/22 13:57:47;;;;;;;2.50;1.75;;;12.60;99.90;;;;;;5096645;28;20024;-39
2023/03/22 14:00:31;;;;;;;3.63;1.67;;;12.60;99.90;;;;;;5096235;28;20039;-39
2023/03/22 14:03:06;;;;;;;6.07;2.20;;;12.60;99.90;;;;;;5096218;28;20035;-42
2023/03/22 14:05:35;;;;;;;2.00;1.65;;;12.50;99.90;;;;;;5096243;28;20503;-38
2023/03/22 14:08:03;;;;;;;8.43;2.40;;;12.50;99.90;;;;;;5096124;28;20157;-37
2023/03/22 14:10:43;;;;;;;9.32;2.63;;;12.60;99.90;;;;;;5096041;28;20020;-37
2023/03/22 14:13:27;;;;;;;5.45;2.03;;;12.60;99.90;;;;;;5096099;28;20032;-38
2023/03/22 14:15:58;;;;;;;3.85;2.30;;;12.70;99.90;;;;;;5096089;28;20040;-40
2023/03/22 14:18:27;;;;;;;7.50;2.05;;;12.70;99.90;;;;;;5095981;28;20101;-41
2023/03/22 14:20:58;;;;;;;2.03;1.70;;;12.70;99.90;;;;;;5095856;28;20034;-39
2023/03/22 14:23:45;;;;;;;3.22;1.70;;;12.70;99.90;;;;;;5096108;28;20036;-39
2023/03/22 14:26:18;;;;;;;2.75;1.60;;;12.70;99.90;;;;;;5095711;28;20028;-38
2023/03/22 14:28:44;;;;;;;2.75;1.70;;;12.80;99.90;;;;;;5096075;28;20380;-38
2023/03/22 14:31:22;;;;;;;3.97;2.05;;;12.90;99.90;;;;;;5095783;28;20027;-34
2023/03/22 14:33:50;;;;;;;7.88;1.85;;;12.80;99.90;;;;;;5095554;28;20051;-37
2023/03/22 14:36:15;;;;;;;;;;;12.70;99.90;;;;;;5096300;28;20020;-39
2023/03/22 14:38:44;;;;;;;3.45;1.50;;;12.70;99.90;;;;;;5095578;28;19908;-35
2023/03/22 14:41:19;;;;;;;10.48;2.15;;;12.70;99.90;;;;;;5095712;28;20020;-34
2023/03/22 14:43:47;;;;;;;5.15;1.98;;;12.60;99.90;;;;;;5095458;28;20027;-39
2023/03/22 14:46:14;;;;;;;;;;;12.60;99.90;;;;;;5095838;28;20107;-35
2023/03/22 14:48:45;;;;;;;2.30;1.77;;;12.60;99.90;;;;;;5095644;28;20356;-38
2023/03/22 14:51:18;;;;;;;3.72;1.83;;;12.60;99.90;;;;;;5095382;28;20024;-38
2023/03/22 14:53:45;;;;;;;5.78;2.85;;;12.50;99.90;;;;;;5095291;28;20132;-37
2023/03/22 14:56:27;;;;;;;6.00;1.77;;;12.50;99.90;;;;;;5095211;28;20536;-36
2023/03/22 14:58:56;;;;;;;5.15;2.67;;;12.60;99.90;;;;;;5095211;28;20028;-40
2023/03/22 15:01:35;;;;;;;5.53;2.15;;;12.70;99.90;;;;;;5095055;28;20547;-35
2023/03/22 15:04:08;;;;;;;4.30;2.05;;;12.60;99.90;;;;;;5094908;28;20132;-39
2023/03/22 15:06:47;;;;;;;5.72;3.33;;;12.60;99.90;;;;;;5094605;28;20039;-39
2023/03/22 15:09:18;;;;;;;10.60;3.35;;;12.60;99.90;;;;;;5094990;28;20441;-39
2023/03/22 15:11:44;;;;;;;7.35;3.70;;;12.60;99.90;;;;;;5094940;28;20031;-39
2023/03/22 15:14:11;;;;;;;6.63;4.03;;;12.60;99.90;;;;;;5094880;28;20036;-41
2023/03/22 15:16:38;;;;;;;11.30;4.53;;;12.60;99.90;;;;;;5094800;28;20036;-40
2023/03/22 15:19:08;;;;;;;12.52;4.28;;;12.60;99.90;;;;;;5094765;28;20043;-37
2023/03/22 15:21:34;;;;;;;13.07;5.15;;;12.60;99.90;;;;;;5094559;28;20039;-38
2023/03/22 15:24:31;;;;;;;7.72;4.35;;;12.60;99.90;;;;;;5094644;28;20024;-35
2023/03/22 15:26:56;;;;;;;6.73;5.13;;;12.60;99.90;;;;;;5094544;28;20024;-38
2023/03/22 15:29:27;;;;;;;7.38;4.25;;;12.60;99.90;;;;;;5094642;28;20589;-42
2023/03/22 15:31:55;;;;;;;6.05;4.75;;;12.60;99.90;;;;;;5094454;28;20114;-43
2023/03/22 15:34:24;;;;;;;;;;;12.60;99.90;;;;;;5095322;28;20518;-47
2023/03/22 15:36:51;;;;;;;8.82;4.65;;;12.60;99.90;;;;;;5094425;28;20383;-42
2023/03/22 15:39:16;;;;;;;11.77;5.05;;;12.50;99.90;;;;;;5094475;28;20035;-45
2023/03/22 15:41:48;;;;;;;10.88;6.22;;;12.50;99.90;;;;;;5094337;28;20039;-47
2023/03/22 15:44:25;;;;;;;9.05;5.38;;;12.50;99.90;;;;;;5094767;28;20016;-45
2023/03/22 15:47:07;;;;;;;11.45;5.97;;;12.50;99.90;;;;;;5094427;28;20106;-46
2023/03/22 15:49:37;;;;;;;10.63;6.10;;;12.50;99.90;;;;;;5094193;28;20392;-44
2023/03/22 15:52:23;;;;;;;11.35;5.68;;;12.40;99.90;;;;;;5094019;28;20035;-39
2023/03/22 15:54:54;;;;;;;9.20;5.30;;;12.40;99.90;;;;;;5093343;28;20024;-36
2023/03/22 15:57:40;;;;;;;12.70;5.47;;;12.40;99.90;;;;;;5094144;28;20032;-37
2023/03/22 16:00:16;;;;;;;10.50;6.72;;;12.30;99.90;;;;;;5094027;28;20020;-38
2023/03/22 16:03:00;;;;;;;10.65;5.45;;;12.20;99.90;;;;;;5092684;28;20035;-40
2023/03/22 16:05:27;;;;;;;8.70;5.95;;;12.20;99.90;;;;;;5093976;28;20121;-38
2023/03/22 16:07:56;;;;;;;12.47;4.93;;;12.20;99.90;;;;;;5093960;28;20032;-35
2023/03/22 16:10:22;;;;;;;9.35;4.22;;;12.10;99.90;;;;;;5094397;28;20050;-39
2023/03/22 16:12:48;;;;;;;6.45;4.55;;;12.10;99.90;;;;;;5093729;28;20032;-39
2023/03/22 16:15:20;;;;;;;8.43;4.72;;;12.20;99.90;;;;;;5093738;28;20081;-38
2023/03/22 16:17:47;;;;;;;7.75;4.72;;;12.10;99.90;;;;;;5093641;28;20054;-39
2023/03/22 16:20:13;;;;;;;7.45;4.03;;;12.00;99.90;;;;;;5093751;28;20479;-46
2023/03/22 16:22:41;;;;;;;6.05;3.92;;;12.00;99.90;;;;;;5093613;28;20430;-46
2023/03/22 16:25:10;;;;;;;6.95;4.55;;;12.00;99.90;;;;;;5092496;28;20495;-46
2023/03/22 16:27:35;;;;;;;9.05;4.13;;;11.90;99.90;;;;;;5093599;28;20518;-43
2023/03/22 16:30:01;;;;;;;5.03;3.80;;;11.80;99.90;;;;;;5093610;28;20056;-45
2023/03/22 16:32:27;;;;;;;5.55;3.83;;;11.80;99.90;;;;;;5093573;28;20119;-44
2023/03/22 16:34:54;;;;;;;8.25;4.28;;;11.80;99.90;;;;;;5093400;28;20027;-43
2023/03/22 16:37:22;;;;;;;5.53;3.80;;;11.70;99.90;;;;;;5093403;28;20062;-44
2023/03/22 16:39:48;;;;;;;5.43;3.55;;;11.70;99.90;;;;;;5093753;28;20031;-42
2023/03/22 16:42:23;;;;;;;6.45;3.75;;;11.70;99.90;;;;;;5093600;28;20444;-42
2023/03/22 16:44:51;;;;;;;8.10;3.42;;;11.70;99.90;;;;;;5093395;28;20032;-44
2023/03/22 16:47:23;;;;;;;4.65;2.90;;;11.70;99.90;;;;;;5093374;28;20103;-45
2023/03/22 16:49:50;;;;;;;3.10;2.88;;;11.70;99.90;;;;;;5093276;28;20154;-44
2023/03/22 16:52:20;;;;;;;4.03;3.10;;;11.60;99.90;;;;;;5093240;28;20070;-45
2023/03/22 16:54:48;;;;;;;3.13;2.80;;;11.60;99.90;;;;;;5093281;28;20484;-42
2023/03/22 16:57:18;;;;;;;;;;;11.70;99.90;;;;;;5093609;28;20052;-46
2023/03/22 16:59:44;;;;;;;3.90;3.08;;;11.70;99.90;;;;;;5093042;28;20110;-47
2023/03/22 17:02:17;;;;;;;5.72;3.05;;;11.70;99.90;;;;;;5093040;28;20031;-52
2023/03/22 17:04:43;;;;;;;7.45;3.63;;;11.70;99.90;;;;;;5093066;28;20035;-45
2023/03/22 17:07:15;;;;;;;5.05;4.15;;;11.70;99.90;;;;;;5093415;28;20381;-49
2023/03/22 17:09:41;;;;;;;3.88;3.15;;;11.70;99.90;;;;;;5093127;28;20038;-45
2023/03/22 17:12:15;;;;;;;3.88;3.50;;;11.70;99.90;;;;;;5093015;28;20099;-43
2023/03/22 17:14:40;;;;;;;5.90;3.15;;;11.70;99.90;;;;;;5091754;28;20028;-46
2023/03/22 17:17:06;;;;;;;6.22;3.15;;;11.70;99.90;;;;;;5092954;28;20028;-47
2023/03/22 17:19:32;;;;;;;3.65;3.08;;;11.70;99.90;;;;;;5092918;28;20031;-44
2023/03/22 17:21:58;;;;;;;3.60;3.05;;;11.70;99.90;;;;;;5092724;28;20028;-39
2023/03/22 17:24:23;;;;;;;5.90;3.13;;;11.80;99.90;;;;;;5092797;28;20080;-39
2023/03/22 17:26:50;;;;;;;7.43;4.10;;;11.80;99.90;;;;;;5092612;28;20028;-40
2023/03/22 17:29:15;;;;;;;8.18;2.90;;;11.80;99.90;;;;;;5096137;28;20397;-41
2023/03/22 17:31:41;;;;;;;4.40;3.15;;;11.80;99.90;;;;;;5096879;28;20063;-39
2023/03/22 17:34:09;;;;;;;4.28;3.47;;;11.80;99.90;;;;;;5096699;28;20044;-37
2023/03/22 17:36:37;;;;;;;4.65;3.33;;;11.80;99.90;;;;;;5097036;28;20039;-41
2023/03/22 17:39:06;;;;;;;3.58;3.05;;;11.80;99.90;;;;;;5096689;28;20119;-38
2023/03/22 17:41:33;;;;;;;4.20;3.47;;;11.80;99.90;;;;;;5096907;28;20024;-41
2023/03/22 17:43:58;;;;;;;6.15;3.80;;;11.80;99.90;;;;;;5096977;28;20105;-42
2023/03/22 17:46:24;;;;;;;8.68;5.03;;;11.80;99.90;;;;;;5097013;28;20055;-43
2023/03/22 17:48:50;;;;;;;7.90;4.43;;;11.70;99.90;;;;;;5096620;28;20016;-43
2023/03/22 17:51:16;;;;;;;6.30;4.03;;;11.70;99.90;;;;;;5096534;28;20031;-37
2023/03/22 17:53:42;;;;;;;7.47;4.18;;;11.80;99.90;;;;;;5096435;28;20107;-37
2023/03/22 17:56:08;;;;;;;9.13;4.85;;;11.80;99.90;;;;;;5096647;28;20461;-38
2023/03/22 17:58:34;;;;;;;7.25;4.20;;;11.80;99.90;;;;;;5096421;28;20035;-39
2023/03/22 18:01:00;;;;;;;7.25;5.15;;;11.80;99.90;;;;;;5096346;28;20020;-37
2023/03/22 18:03:25;;;;;;;7.32;4.70;;;11.80;99.90;;;;;;5096141;28;20035;-39
2023/03/22 18:05:51;;;;;;;10.02;5.15;;;11.80;99.90;;;;;;5096217;28;20037;-38
2023/03/22 18:08:17;;;;;;;8.23;5.78;;;11.80;99.90;;;;;;5096094;28;20525;-40
2023/03/22 18:10:44;;;;;;;7.40;4.97;;;11.80;99.90;;;;;;5096127;28;20035;-46
2023/03/22 18:13:10;;;;;;;7.53;5.40;;;11.80;99.90;;;;;;5096266;28;20527;-41
2023/03/22 18:15:36;;;;;;;6.75;4.97;;;11.80;99.90;;;;;;5096174;28;20113;-46
2023/03/22 18:18:03;;;;;;;10.88;5.40;;;11.80;99.90;;;;;;5095963;28;20056;-39
2023/03/22 18:20:29;;;;;;;7.38;6.03;;;11.80;99.90;;;;;;5095778;28;20564;-38
2023/03/22 18:22:55;;;;;;;9.48;6.60;;;11.70;99.90;;;;;;5095823;28;20020;-38
2023/03/22 18:25:21;;;;;;;9.32;6.10;;;11.70;99.90;;;;;;5095873;28;20055;-35
2023/03/22 18:27:47;;;;;;;13.65;7.35;;;11.70;99.90;;;;;;5094365;28;20369;-36
2023/03/22 18:30:16;;;;;;;11.18;6.93;;;11.70;99.90;;;;;;5099763;28;20023;-38
2023/03/22 18:32:41;;;;;;;10.60;7.30;;;11.70;99.90;;;;;;5115706;28;20496;-38
2023/03/22 18:35:08;;;;;;;27.02;7.30;;;11.80;99.90;;;;;;5115737;28;20024;-37
2023/03/22 18:37:36;;;;;;;11.63;6.88;;;11.70;99.90;;;;;;5116010;28;20099;-48
2023/03/22 18:40:06;;;;;;;11.73;7.10;;;11.80;99.90;;;;;;5116004;28;20152;-47
2023/03/22 18:42:33;;;;;;;12.77;6.40;;;11.80;99.90;;;;;;5116147;28;20525;-47
2023/03/22 18:44:59;;;;;;;9.95;6.70;;;11.80;99.90;;;;;;5104088;28;20093;-47
2023/03/22 18:47:25;;;;;;;12.70;7.03;;;11.80;99.90;;;;;;5101439;28;20405;-41
2023/03/22 18:49:51;;;;;;;8.93;5.93;;;11.80;99.90;;;;;;5115598;28;20069;-35
2023/03/22 18:52:17;;;;;;;10.60;6.88;;;11.80;99.90;;;;;;5116003;28;20019;-39
2023/03/22 18:54:42;;;;;;;11.00;6.78;;;11.80;99.90;;;;;;5096915;28;20043;-40
2023/03/22 18:57:08;;;;;;;8.82;7.00;;;11.90;99.90;;;;;;5104645;28;20467;-36
2023/03/22 18:59:34;;;;;;;8.90;6.72;;;11.90;99.90;;;;;;5112685;28;20490;-39
2023/03/22 19:02:00;;;;;;;9.70;6.75;;;11.90;99.90;;;;;;5106265;28;20391;-37
2023/03/22 19:04:25;;;;;;;12.60;6.82;;;11.90;99.90;;;;;;5110322;27;20035;-37
2023/03/22 19:06:51;;;;;;;13.13;7.07;;;11.90;99.90;;;;;;5115704;28;20015;-40
2023/03/22 19:09:17;;;;;;;9.52;6.63;;;11.90;99.90;;;;;;5099391;28;20107;-35
2023/03/22 19:11:43;;;;;;;10.93;6.63;;;11.90;99.90;;;;;;5095024;28;20484;-37
2023/03/22 19:14:09;;;;;;;9.40;6.70;;;11.80;99.90;;;;;;5094886;28;20098;-38
2023/03/22 19:16:35;;;;;;;10.85;7.07;;;11.80;99.90;;;;;;5094563;28;20024;-34
2023/03/22 19:19:01;;;;;;;12.93;7.60;;;11.80;99.90;;;;;;5094650;28;20037;-33
2023/03/22 19:21:27;;;;;;;17.98;7.20;;;11.80;99.90;;;;;;5094731;28;20032;-36
2023/03/22 19:23:56;;;;;;;13.05;6.25;;;11.70;99.90;;;;;;5095151;28;20024;-39
2023/03/22 19:26:21;;;;;;;12.50;7.55;;;11.70;99.90;;;;;;5099706;28;20502;-34
2023/03/22 19:28:47;;;;;;;16.83;7.70;;;11.60;99.90;;;;;;5114829;28;20024;-39
2023/03/22 19:31:13;;;;;;;9.88;7.53;;;11.60;99.90;;;;;;5101176;28;20020;-38
2023/03/22 19:33:38;;;;;;;20.30;8.02;;;11.60;99.90;;;;;;5114672;28;20048;-38
2023/03/22 19:36:04;;;;;;;14.80;9.07;;;11.60;99.90;;;;;;5114896;28;20027;-34
2023/03/22 19:38:31;;;;;;;13.10;7.80;;;11.60;99.90;;;;;;5099516;28;20481;-34
2023/03/22 19:41:06;;;;;;;13.80;8.23;;;11.60;99.90;;;;;;5093529;28;20465;-34
2023/03/22 19:43:33;;;;;;;18.52;10.82;;;11.60;99.90;;;;;;5094574;28;20045;-38
2023/03/22 19:45:59;;;;;;;13.00;7.35;;;11.50;99.90;;;;;;5111286;28;20531;-36
2023/03/22 19:48:25;;;;;;;13.30;6.20;;;11.50;99.90;;;;;;5114816;28;20103;-34
2023/03/22 19:50:51;;;;;;;18.00;7.85;;;11.60;99.90;;;;;;5107648;28;20365;-36
2023/03/22 19:53:17;;;;;;;26.80;8.02;;;11.50;99.90;;;;;;5109780;28;20472;-38
2023/03/22 19:55:43;;;;;;;15.15;7.30;;;11.50;99.90;;;;;;5114592;28;20062;-36
2023/03/22 19:58:09;;;;;;;18.38;6.93;;;11.50;99.90;;;;;;5114328;28;20031;-34
2023/03/22 20:00:35;;;;;;;13.57;6.38;;;11.50;99.90;;;;;;5107369;28;20527;-34
2023/03/22 20:03:01;;;;;;;11.77;6.28;;;11.50;99.90;;;;;;5094585;28;20035;-35
2023/03/22 20:05:27;;;;;;;13.77;6.22;;;11.40;99.90;;;;;;5099524;28;20016;-38
2023/03/22 20:07:53;;;;;;;13.07;6.15;;;11.40;99.90;;;;;;5110824;28;20372;-38
2023/03/22 20:10:20;;;;;;;24.52;7.50;;;11.40;99.90;;;;;;5110217;28;20027;-37
2023/03/22 20:12:46;;;;;;;13.45;6.35;;;11.40;99.90;;;;;;5103178;28;20047;-36
2023/03/22 20:15:12;;;;;;;15.32;5.93;;;11.50;99.90;;;;;;5094559;28;20473;-35
2023/03/22 20:17:39;;;;;;;17.60;6.25;;;11.40;99.90;;;;;;5092468;28;20035;-36
2023/03/22 20:20:11;;;;;;;11.53;6.37;;;11.50;99.90;;;;;;5097022;28;20047;-38
2023/03/22 20:22:38;;;;;;;15.23;6.82;;;11.40;99.90;;;;;;5111506;27;20031;-40
2023/03/22 20:25:04;;;;;;;15.73;6.47;;;11.40;99.90;;;;;;5103295;28;20020;-36
2023/03/22 20:27:31;;;;;;;14.38;7.03;;;11.40;99.90;;;;;;5100323;28;20050;-38